Date,TemperatureHighF,TemperatureAvgF,TemperatureLowF,DewpointHighF,DewpointAvgF,DewpointLowF,HumidityHigh,HumidityAvg,HumidityLow,PressureMaxIn,PressureMinIn,WindSpeedMaxMPH,WindSpeedAvgMPH,GustSpeedMaxMPH,PrecipitationSumIn
2013-1-1,39,35,32,38,35,32,99,99,99,30.19,30.04,0,0,0,0.00
2013-1-2,37,34,32,37,34,31,99,99,99,30.05,29.86,3,0,6,0.00
2013-1-3,37,34,31,37,34,31,99,99,99,29.87,29.74,0,0,2,0.12
2013-1-4,42,40,37,41,40,36,99,99,99,29.96,29.79,2,0,5,0.05
2013-1-5,42,41,38,42,40,38,99,99,99,29.85,29.71,2,0,5,0.21
2013-1-6,43,41,38,42,41,38,99,99,99,29.78,29.58,2,0,4,0.29
2013-1-7,46,42,38,45,42,38,99,99,99,29.78,29.41,2,0,6,0.23
2013-1-8,48,42,38,48,42,38,99,99,99,29.80,29.24,3,0,6,1.42
2013-1-9,44,40,35,44,40,35,99,99,99,29.57,29.27,1,0,3,0.00
2013-1-10,40,37,32,40,36,31,99,99,96,29.81,29.57,1,0,5,0.00
2013-1-11,34,31,28,33,30,28,99,98,89,29.99,29.81,0,0,0,0.00
2013-1-12,33,30,28,32,29,28,99,98,92,30.11,29.98,2,0,4,0.02
2013-1-13,35,33,29,35,33,29,99,99,99,30.15,30.10,0,0,0,0.00
2013-1-14,37,35,34,37,35,34,99,99,99,30.25,30.11,0,0,0,0.09
2013-1-15,39,36,35,39,36,34,99,99,99,30.38,30.24,0,0,0,0.00
2013-1-16,39,36,32,38,36,32,99,99,99,30.36,30.21,0,0,0,0.00
2013-1-17,39,34,32,39,34,31,99,99,99,30.22,29.95,0,0,0,0.00
2013-1-18,40,38,37,40,38,37,99,99,99,30.02,29.92,0,0,0,0.00
2013-1-19,42,38,36,41,38,36,99,99,99,30.06,30.00,0,0,0,0.00
2013-1-20,38,36,35,38,36,34,99,99,99,30.07,29.94,1,0,3,0.00
2013-1-21,38,35,32,37,35,32,99,99,99,29.95,29.80,0,0,0,0.00
2013-1-22,40,36,33,39,35,33,99,99,99,29.81,29.57,0,0,0,0.00
2013-1-23,41,39,37,41,39,37,99,99,99,29.74,29.46,0,0,2,0.17
2013-1-24,42,39,36,42,39,36,99,99,99,29.83,29.64,3,0,6,0.13
2013-1-25,46,42,38,46,42,38,99,99,99,29.69,29.53,2,0,4,0.00
2013-1-26,44,42,39,44,41,39,99,99,99,29.67,29.48,2,0,5,0.04
2013-1-27,41,38,36,41,38,35,99,99,99,29.66,29.59,2,0,3,0.08
2013-1-28,41,38,36,41,38,36,99,99,99,29.70,29.60,0,0,1,0.00
2013-1-29,44,41,38,44,41,38,99,99,99,29.95,29.70,0,0,0,0.07
2013-1-30,44,42,41,44,42,41,99,99,99,30.03,29.95,0,0,1,0.00
2013-1-31,50,44,41,49,44,41,99,99,99,30.03,29.91,2,0,4,0.05
2013-2-1,47,43,39,46,43,39,99,99,99,30.10,29.99,1,0,3,0.00
2013-2-2,44,41,39,43,41,38,99,99,99,30.09,29.90,0,0,2,0.00
2013-2-3,44,42,40,43,42,40,99,99,99,29.95,29.81,2,0,5,0.08
2013-2-4,48,44,41,47,43,41,99,99,99,29.81,29.48,3,0,8,0.03
2013-2-5,47,43,40,47,43,40,99,99,99,29.51,29.40,2,0,6,0.19
2013-2-6,46,44,41,46,44,41,99,99,99,29.64,29.36,4,0,8,0.04
2013-2-7,50,42,36,47,42,36,99,97,84,29.86,29.33,3,0,8,0.00
2013-2-8,45,40,37,45,40,36,99,99,99,29.96,29.86,1,0,3,0.02
2013-2-9,43,40,38,42,40,37,99,99,99,30.02,29.91,0,0,0,0.00
2013-2-10,44,40,36,44,40,36,99,99,99,30.04,29.98,0,0,0,0.00
2013-2-11,47,43,39,46,42,39,99,99,99,30.00,29.96,2,0,4,0.00
2013-2-12,48,45,42,48,44,41,99,99,99,30.03,29.86,2,0,4,0.00
2013-2-13,50,44,40,48,43,40,99,98,92,30.14,29.90,1,0,2,0.00
2013-2-14,44,43,41,44,42,40,99,99,99,30.25,30.12,0,0,0,0.19
2013-2-15,54,43,41,54,43,40,99,99,99,30.26,29.83,2,0,3,0.02
2013-2-16,56,44,40,53,44,40,99,98,84,29.83,29.72,2,0,4,0.01
2013-2-17,45,41,38,44,41,37,99,99,97,29.89,29.76,3,0,5,0.00
2013-2-18,43,40,38,43,40,38,99,99,99,29.76,29.41,2,0,5,0.08
2013-2-19,57,42,35,51,41,35,99,98,76,29.65,29.40,3,0,7,0.00
2013-2-20,45,39,35,45,39,34,99,99,99,29.67,29.63,2,0,4,0.09
2013-2-21,52,42,39,52,42,39,99,99,93,29.67,29.59,2,0,5,0.00
2013-2-22,48,42,38,47,42,37,99,99,95,29.64,29.23,2,0,7,0.16
2013-2-23,53,41,35,50,40,35,99,97,82,29.97,29.46,2,0,3,0.00
2013-2-24,44,42,39,43,42,39,99,99,99,29.99,29.48,4,0,9,0.14
2013-2-25,56,43,38,48,42,37,99,95,62,29.91,29.40,4,0,10,0.05
2013-2-26,45,41,36,44,41,36,99,99,99,29.96,29.77,2,0,6,0.04
2013-2-27,48,41,36,48,41,35,99,99,98,29.96,29.80,2,0,4,0.02
2013-2-28,48,42,39,47,42,39,99,99,99,29.93,29.84,4,0,6,0.50
2013-3-1,52,49,47,51,49,47,99,99,99,29.90,29.85,2,0,6,0.59
2013-3-2,51,45,36,51,45,36,99,99,99,29.88,29.67,2,0,5,0.15
2013-3-3,57,40,34,53,39,33,99,96,64,29.97,29.82,2,0,4,0.01
2013-3-4,56,41,34,50,40,34,99,97,73,29.97,29.63,3,0,5,0.00
2013-3-5,46,42,38,44,41,37,99,95,79,29.64,29.43,4,0,10,0.13
2013-3-6,43,41,39,43,41,39,99,99,99,29.52,29.28,1,0,5,0.09
2013-3-7,48,42,38,48,42,38,99,99,99,29.78,29.51,2,0,4,0.05
2013-3-8,58,43,37,57,42,37,99,98,79,29.90,29.75,3,0,4,0.02
2013-3-9,60,43,35,56,42,35,99,97,78,30.14,29.89,2,0,5,0.00
2013-3-10,47,43,40,47,43,40,99,99,99,30.14,30.07,1,0,2,0.00
2013-3-11,51,42,37,51,42,37,99,99,99,30.09,29.77,2,0,6,0.22
2013-3-12,52,48,43,52,48,42,99,99,99,29.77,29.59,3,0,7,0.26
2013-3-13,50,49,48,50,49,48,99,99,99,29.80,29.66,2,0,6,0.14
2013-3-14,50,48,47,50,48,46,99,99,99,29.77,29.63,2,0,6,0.18
2013-3-15,57,48,45,57,48,44,99,99,99,29.85,29.75,2,0,4,0.10
2013-3-16,52,44,37,52,43,37,99,96,80,29.76,29.47,2,0,4,0.01
2013-3-17,51,41,34,44,38,34,99,91,64,29.79,29.57,1,0,5,0.00
2013-3-18,59,42,36,53,40,35,99,94,61,29.90,29.67,2,0,8,0.02
2013-3-19,48,41,35,45,40,35,99,96,77,29.88,29.19,6,0,11,0.32
2013-3-20,56,45,38,53,45,37,99,97,84,29.59,28.91,3,0,9,0.21
2013-3-21,55,40,34,48,38,34,99,93,47,29.85,29.59,2,0,5,0.02
2013-3-22,55,39,34,43,37,34,99,92,55,30.04,29.84,2,0,6,0.00
2013-3-23,55,40,35,47,38,35,99,92,53,30.06,29.97,3,0,7,0.00
2013-3-24,53,42,36,43,39,34,99,90,53,29.97,29.80,3,0,5,0.00
2013-3-25,63,46,37,48,41,37,99,84,44,29.80,29.62,5,0,8,0.00
2013-3-26,61,47,40,51,45,39,99,92,63,29.68,29.63,4,0,5,0.00
2013-3-27,64,49,42,57,48,42,99,95,67,29.66,29.60,1,0,2,0.00
2013-3-28,65,50,42,57,48,42,99,95,67,29.80,29.66,4,0,4,0.00
2013-3-29,67,50,42,62,48,41,99,96,75,29.93,29.80,2,0,3,0.00
2013-3-30,68,51,43,59,48,43,99,92,59,29.95,29.76,1,0,3,0.00
2013-3-31,72,54,46,54,50,45,99,88,43,29.76,29.57,2,0,3,0.00
2013-4-1,65,51,44,58,50,43,99,96,74,29.76,29.60,4,0,8,0.00
2013-4-2,61,49,43,56,48,43,99,97,80,29.85,29.75,3,0,5,0.00
2013-4-3,63,51,46,58,50,45,99,97,84,29.85,29.63,3,0,5,0.00
2013-4-4,51,49,48,51,49,47,99,99,99,29.63,29.22,1,0,3,0.64
2013-4-5,60,50,46,59,50,46,99,99,98,29.46,29.27,2,0,8,0.09
2013-4-6,61,48,43,52,47,43,99,97,67,29.52,29.26,2,0,4,0.11
2013-4-7,52,46,42,51,45,42,99,99,99,29.50,29.22,3,0,8,0.14
2013-4-8,62,49,44,58,48,44,99,98,82,29.90,29.50,3,0,5,0.00
2013-4-9,49,46,43,49,46,43,99,99,99,30.00,29.77,2,0,5,0.03
2013-4-10,60,50,46,60,49,45,99,99,92,29.85,29.47,4,0,7,0.31
2013-4-11,61,47,41,49,44,41,99,91,54,29.95,29.82,2,0,3,0.00
2013-4-12,44,41,38,44,41,38,99,99,99,29.82,29.29,2,0,3,0.15
2013-4-13,54,42,34,53,41,34,99,99,91,29.64,29.35,3,0,6,0.01
2013-4-14,60,44,38,53,42,38,99,96,63,29.66,29.58,2,0,4,0.01
2013-4-15,62,47,40,58,46,40,99,97,74,29.85,29.58,0,0,2,0.08
2013-4-16,68,48,39,54,43,34,99,85,39,30.04,29.85,2,0,3,0.00
2013-4-17,59,50,44,55,48,42,99,94,74,30.08,30.02,2,0,5,0.00
2013-4-18,49,46,43,48,45,42,99,99,99,30.09,29.81,2,0,5,0.35
2013-4-19,58,50,47,58,50,47,99,99,99,29.81,29.70,1,0,2,0.23
2013-4-20,59,50,45,58,50,45,99,99,93,29.89,29.79,2,0,5,0.00
2013-4-21,54,46,41,53,46,41,99,98,89,30.06,29.86,5,0,11,0.00
2013-4-22,66,47,37,53,42,34,99,83,44,30.23,30.06,1,0,3,0.00
2013-4-23,64,50,41,50,45,38,99,85,51,30.09,29.94,2,0,4,0.00
2013-4-24,70,54,44,55,48,42,99,84,48,29.99,29.71,2,0,4,0.00
2013-4-25,68,54,46,59,51,45,99,91,60,29.77,29.69,3,0,5,0.00
2013-4-26,61,51,44,56,50,43,99,96,80,29.89,29.76,3,0,7,0.00
2013-4-27,56,52,46,55,52,46,99,97,83,29.84,29.73,2,0,6,0.00
2013-4-28,60,49,42,49,46,42,99,89,58,29.84,29.54,2,0,5,0.00
2013-4-29,59,47,42,47,43,35,99,88,44,29.80,29.53,3,0,6,0.01
2013-4-30,59,47,40,46,42,40,99,86,55,30.09,29.79,2,0,4,0.00
2013-5-1,62,48,39,55,44,39,99,86,57,30.26,30.09,3,0,5,0.00
2013-5-2,60,52,43,53,48,43,99,88,63,30.23,30.05,1,0,3,0.00
2013-5-3,69,57,49,59,52,46,99,83,54,30.10,29.91,2,0,4,0.00
2013-5-4,77,63,54,57,52,43,99,72,45,29.94,29.67,1,0,4,0.00
2013-5-5,83,67,57,58,54,49,93,66,35,29.69,29.42,2,0,3,0.00
2013-5-6,82,63,55,60,56,50,99,78,42,29.52,29.42,3,0,5,0.00
2013-5-7,68,58,51,62,57,50,99,94,73,29.61,29.43,3,0,7,0.00
2013-5-8,66,56,49,62,55,48,99,97,83,29.78,29.60,4,0,8,0.00
2013-5-9,70,57,46,62,55,46,99,94,73,29.87,29.76,2,0,6,0.00
2013-5-10,69,57,47,63,56,46,99,94,75,29.86,29.76,2,0,5,0.00
2013-5-11,69,57,51,61,56,51,99,94,67,29.81,29.65,2,0,4,0.09
2013-5-12,65,58,54,64,58,53,99,99,99,29.71,29.62,3,0,5,0.34
2013-5-13,54,53,52,54,53,52,99,99,99,29.66,29.64,0,0,0,0.00
2013-5-17,52,52,50,52,52,49,99,99,99,29.76,29.68,0,0,0,0.16
2013-5-18,60,54,51,60,54,50,99,99,99,29.92,29.68,2,0,4,0.01
2013-5-19,66,56,50,58,54,50,99,93,71,30.05,29.91,2,0,4,0.00
2013-5-20,65,54,46,61,53,46,99,96,77,30.00,29.58,3,0,7,0.01
2013-5-21,51,48,45,51,48,45,99,99,99,29.59,29.44,2,0,3,0.16
2013-5-22,62,54,45,59,52,45,99,95,80,29.60,29.48,2,0,6,20.92
2013-5-23,62,52,45,58,50,45,99,95,69,29.65,29.56,4,0,6,0.01
2013-5-24,65,54,45,58,51,45,99,91,61,29.67,29.63,3,0,6,0.00
2013-5-25,62,54,49,59,53,48,99,96,77,29.68,29.64,3,0,5,0.00
2013-5-26,61,54,50,60,54,49,99,99,99,29.65,29.58,2,0,4,0.02
2013-5-27,55,53,50,54,53,50,99,99,99,29.59,29.34,2,0,4,0.36
2013-5-28,57,53,51,57,52,51,99,99,99,29.52,29.38,1,0,4,0.15
2013-5-29,55,52,48,54,51,48,99,99,99,29.58,29.34,0,0,0,0.35
2013-5-30,60,51,46,60,51,45,99,99,99,29.88,29.58,3,0,5,0.20
2013-5-31,49,49,49,49,48,48,99,99,99,30.00,29.88,0,0,0,0.00
2013-6-1,66,56,49,63,55,48,99,96,77,29.91,29.74,0,0,0,0.00
2013-6-2,70,59,52,62,56,52,99,92,67,29.75,29.68,0,0,0,0.00
2013-6-3,69,58,51,64,57,51,99,96,78,29.78,29.71,0,0,0,0.00
2013-6-4,77,62,50,67,57,50,99,86,57,29.81,29.67,0,0,0,0.00
2013-6-5,73,62,54,67,61,54,99,95,73,29.75,29.66,0,0,0,0.00
2013-6-6,75,63,54,64,58,53,99,88,53,29.72,29.62,0,0,0,0.00
2013-6-7,69,60,52,65,59,52,99,94,80,29.75,29.62,0,0,0,0.05
2013-6-8,67,58,51,59,55,50,99,91,71,29.81,29.75,0,0,0,0.00
2013-6-9,68,58,51,62,55,49,99,91,60,29.76,29.67,0,0,0,0.00
2013-6-10,69,58,50,61,54,50,99,88,62,29.68,29.50,0,0,0,0.00
2013-6-11,66,58,52,57,53,50,99,85,62,29.73,29.53,0,0,0,0.00
2013-6-12,68,56,50,60,54,50,99,95,66,29.79,29.72,0,0,0,0.02
2013-6-13,70,58,49,62,54,48,99,89,58,29.83,29.78,0,0,0,0.00
2013-6-14,67,58,51,59,56,51,99,91,70,29.86,29.73,0,0,0,0.00
2013-6-15,70,60,50,64,58,49,99,92,71,29.74,29.57,0,0,0,0.00
2013-6-16,74,62,54,64,58,53,99,89,58,29.70,29.62,0,0,0,0.00
2013-6-17,73,63,54,61,58,54,99,85,55,29.70,29.54,0,0,0,0.01
2013-6-18,72,60,54,63,56,54,99,89,54,29.61,29.55,0,0,0,22.45
2013-6-19,71,61,52,61,56,52,99,86,59,29.61,29.53,0,0,0,0.00
2013-6-20,59,56,53,57,56,53,99,97,85,29.72,29.54,0,0,0,0.19
2013-6-21,70,59,51,64,57,51,99,94,69,29.81,29.71,0,0,0,0.00
2013-6-22,75,62,53,63,58,53,99,87,57,29.77,29.53,0,0,0,0.00
2013-6-23,64,60,56,64,60,55,99,99,97,29.54,29.25,0,0,0,0.05
2013-6-24,64,59,56,64,59,56,99,99,99,29.33,29.18,0,0,0,0.08
2013-6-25,67,60,56,66,59,56,99,99,98,29.45,29.30,0,0,0,0.04
2013-6-26,67,60,54,66,60,54,99,99,93,29.73,29.45,0,0,0,0.05
2013-6-27,66,61,57,66,61,57,99,99,99,29.87,29.70,0,0,0,0.09
2013-6-28,72,65,60,72,65,60,99,99,97,29.87,29.72,0,0,0,0.00
2013-6-29,79,68,61,74,66,61,99,94,73,29.75,29.63,0,0,0,0.00
2013-6-30,88,71,58,74,67,58,99,89,60,29.67,29.49,0,0,0,0.00
2013-7-1,86,72,62,71,66,62,99,84,55,29.62,29.53,0,0,0,0.00
2013-7-2,81,68,57,69,62,57,99,84,58,29.73,29.61,0,0,0,0.00
2013-7-3,78,65,55,62,57,50,99,78,47,29.80,29.66,0,0,0,0.00
2013-7-4,74,62,54,62,56,52,99,82,58,29.74,29.65,0,0,0,0.00
2013-7-5,72,62,55,61,58,55,99,88,66,29.67,29.63,0,0,0,0.00
2013-7-6,80,66,58,64,59,56,99,82,54,29.64,29.48,0,0,0,0.00
2013-7-7,77,66,57,65,61,57,99,85,60,29.59,29.51,0,0,0,0.00
2013-7-8,76,65,58,65,61,58,99,88,65,29.73,29.58,0,0,0,0.00
2013-7-9,83,67,55,68,61,55,99,83,48,29.77,29.60,0,0,0,0.00
2013-7-10,74,64,55,63,58,51,99,82,57,29.68,29.53,0,0,0,0.00
2013-7-11,72,61,54,54,51,48,88,71,45,29.70,29.57,0,0,0,0.00
2013-7-12,73,62,54,56,53,49,94,76,50,29.73,29.65,0,0,0,0.00
2013-7-13,77,63,52,61,56,52,99,79,47,29.85,29.72,0,0,0,0.00
2013-7-14,78,65,56,62,56,51,98,76,38,29.78,29.66,0,0,0,0.00
2013-7-15,82,69,59,59,52,40,84,58,34,29.74,29.56,0,0,0,0.00
2013-7-16,83,72,63,60,55,43,79,57,36,29.58,29.44,0,0,0,0.00
2013-7-17,78,68,59,62,58,51,91,72,54,29.81,29.49,0,0,0,0.00
2013-7-18,79,66,55,63,59,55,99,82,54,29.88,29.74,0,0,0,0.00
2013-7-19,80,66,55,66,61,54,99,85,58,29.80,29.65,0,0,0,0.00
2013-7-20,71,63,55,62,58,55,99,87,68,29.70,29.58,0,0,0,0.00
2013-7-21,73,62,53,62,58,53,99,87,66,29.62,29.53,0,0,0,0.00
2013-7-22,74,63,54,62,58,54,99,86,65,29.69,29.56,88,1,0,0.00
2013-7-23,83,67,55,65,59,52,99,78,48,29.73,29.60,0,0,0,0.00
2013-7-24,82,67,55,65,58,54,99,77,51,29.70,29.62,0,0,0,0.00
2013-7-25,79,66,55,65,58,54,99,79,52,29.75,29.65,0,0,0,0.00
2013-7-26,76,65,56,62,58,54,99,80,59,29.80,29.71,0,0,0,750.39
2013-7-27,77,64,53,59,55,51,99,75,51,29.80,29.63,0,0,0,0.00
2013-7-28,74,65,57,61,57,51,94,77,61,29.65,29.55,0,0,0,0.00
2013-7-29,74,62,54,60,57,54,99,82,59,29.65,29.56,0,0,0,0.00
2013-7-30,70,61,53,60,57,52,99,87,69,29.77,29.62,0,0,0,0.00
2013-7-31,74,62,53,62,58,53,99,87,64,29.75,29.62,0,0,0,0.00
2013-8-1,70,62,53,60,57,53,99,86,68,29.68,29.61,0,0,0,0.00
2013-8-2,60,58,56,60,57,55,99,98,90,29.78,29.64,0,0,0,0.16
2013-8-3,74,62,56,66,60,56,99,92,71,29.79,29.70,0,0,0,0.00
2013-8-4,80,66,57,65,61,57,99,85,59,29.72,29.58,0,0,0,0.00
2013-8-5,81,67,57,64,60,54,99,80,52,29.66,29.55,0,0,0,0.00
2013-8-6,80,64,53,62,57,52,99,78,50,29.65,29.55,0,0,0,0.00
2013-8-7,82,66,54,63,57,52,96,75,45,29.64,29.55,0,0,0,0.00
2013-8-8,81,66,55,64,58,54,99,79,53,29.66,29.54,0,0,0,0.00
2013-8-9,84,66,54,66,58,51,95,76,51,29.59,29.43,0,0,0,0.00
2013-8-10,75,64,56,64,59,54,99,85,63,29.63,29.48,0,0,0,0.01
2013-8-11,73,61,55,63,56,53,99,85,61,29.70,29.61,0,0,0,0.05
2013-8-12,75,63,55,61,57,54,98,83,59,29.70,29.63,0,0,0,0.00
2013-8-13,78,64,54,62,57,54,99,81,54,29.75,29.57,0,0,0,0.00
2013-8-14,72,62,55,62,58,54,99,88,69,29.59,29.53,0,0,0,0.02
2013-8-15,69,62,56,64,61,55,99,96,81,29.63,29.55,0,0,0,0.04
2013-8-16,78,63,53,67,60,52,99,91,69,29.66,29.59,0,0,0,0.00
2013-8-17,79,66,60,64,60,55,98,82,58,29.70,29.61,0,0,0,0.00
2013-8-18,75,64,56,62,57,53,91,79,62,29.75,29.68,0,0,0,0.00
2013-8-19,59,59,58,55,54,54,87,85,82,29.70,29.68,0,0,0,0.00
2013-8-20,77,64,55,58,53,46,97,70,38,29.82,29.73,0,0,0,23.26
2013-8-21,82,66,55,60,54,48,86,66,41,29.76,29.58,0,0,0,0.00
2013-8-22,86,69,58,62,57,50,87,67,43,29.60,29.41,0,0,0,0.00
2013-8-23,73,62,55,61,57,51,99,82,61,29.52,29.41,0,0,0,0.03
2013-8-24,67,60,57,61,59,57,99,96,78,29.53,29.49,1,0,11,0.06